sensor_id;sensor_type;location;lat;lon;timestamp;pressure;altitude;pressure_sealevel;temperature;humidity
57048;BME280;42934;54.294;18.598;2022-11-20T00:01:52;100453.09;;;0.32;74.68
57048;BME280;42934;54.294;18.598;2022-11-20T00:04:21;100459.97;;;0.29;74.60
57048;BME280;42934;54.294;18.598;2022-11-20T00:06:51;100459.16;;;0.33;74.93
57048;BME280;42934;54.294;18.598;2022-11-20T00:09:20;100465.16;;;0.35;75.31
57048;BME280;42934;54.294;18.598;2022-11-20T00:11:51;100457.44;;;0.33;75.21
57048;BME280;42934;54.294;18.598;2022-11-20T00:14:21;100463.41;;;0.29;75.01
57048;BME280;42934;54.294;18.598;2022-11-20T00:16:50;100459.13;;;0.27;74.94
57048;BME280;42934;54.294;18.598;2022-11-20T00:19:19;100458.22;;;0.23;75.31
57048;BME280;42934;54.294;18.598;2022-11-20T00:21:49;100448.72;;;0.20;75.07
57048;BME280;42934;54.294;18.598;2022-11-20T00:24:19;100448.75;;;0.25;75.12
57048;BME280;42934;54.294;18.598;2022-11-20T00:26:48;100447.03;;;0.26;75.01
57048;BME280;42934;54.294;18.598;2022-11-20T00:29:19;100444.47;;;0.27;75.38
57048;BME280;42934;54.294;18.598;2022-11-20T00:31:48;100449.66;;;0.27;75.61
57048;BME280;42934;54.294;18.598;2022-11-20T00:34:18;100447.94;;;0.31;75.18
57048;BME280;42934;54.294;18.598;2022-11-20T00:36:48;100448.72;;;0.20;74.73
57048;BME280;42934;54.294;18.598;2022-11-20T00:39:17;100447.84;;;0.17;75.38
57048;BME280;42934;54.294;18.598;2022-11-20T00:41:47;100453.88;;;0.16;75.35
57048;BME280;42934;54.294;18.598;2022-11-20T00:44:17;100454.75;;;0.18;75.12
57048;BME280;42934;54.294;18.598;2022-11-20T00:46:47;100452.97;;;0.11;74.54
57048;BME280;42934;54.294;18.598;2022-11-20T00:49:16;100459.84;;;0.07;74.91
57048;BME280;42934;54.294;18.598;2022-11-20T00:51:46;100458.97;;;0.05;74.91
57048;BME280;42934;54.294;18.598;2022-11-20T00:54:15;100456.41;;;0.07;75.52
57048;BME280;42934;54.294;18.598;2022-11-20T00:56:47;100452.09;;;0.07;75.64
57048;BME280;42934;54.294;18.598;2022-11-20T00:59:17;100452.06;;;0.06;75.03
57048;BME280;42934;54.294;18.598;2022-11-20T01:01:47;100456.41;;;0.10;75.31
57048;BME280;42934;54.294;18.598;2022-11-20T01:04:16;100462.44;;;0.12;75.21
57048;BME280;42934;54.294;18.598;2022-11-20T01:06:46;100453.84;;;0.13;75.27
57048;BME280;42934;54.294;18.598;2022-11-20T01:09:15;100457.31;;;0.15;75.29
57048;BME280;42934;54.294;18.598;2022-11-20T01:11:45;100463.34;;;0.17;75.35
57048;BME280;42934;54.294;18.598;2022-11-20T01:14:16;100453.84;;;0.10;74.99
57048;BME280;42934;54.294;18.598;2022-11-20T01:16:50;100446.94;;;0.09;75.24
57048;BME280;42934;54.294;18.598;2022-11-20T01:19:22;100455.56;;;0.11;75.36
57048;BME280;42934;54.294;18.598;2022-11-20T01:21:54;100438.34;;;0.07;75.69
57048;BME280;42934;54.294;18.598;2022-11-20T01:24:23;100452.16;;;0.15;75.07
57048;BME280;42934;54.294;18.598;2022-11-20T01:26:52;100448.72;;;0.17;75.08
57048;BME280;42934;54.294;18.598;2022-11-20T01:29:23;100447.84;;;0.14;75.73
57048;BME280;42934;54.294;18.598;2022-11-20T01:31:54;100449.59;;;0.18;75.67
57048;BME280;42934;54.294;18.598;2022-11-20T01:34:23;100454.75;;;0.18;75.37
57048;BME280;42934;54.294;18.598;2022-11-20T01:36:53;100450.44;;;0.17;74.94
57048;BME280;42934;54.294;18.598;2022-11-20T01:39:24;100448.72;;;0.16;75.88
57048;BME280;42934;54.294;18.598;2022-11-20T01:41:55;100458.19;;;0.18;75.64
57048;BME280;42934;54.294;18.598;2022-11-20T01:44:50;100452.09;;;0.09;74.66
57048;BME280;42934;54.294;18.598;2022-11-20T01:47:25;100451.22;;;0.08;74.97
57048;BME280;42934;54.294;18.598;2022-11-20T01:49:58;100450.41;;;0.09;75.27
57048;BME280;42934;54.294;18.598;2022-11-20T01:52:32;100457.22;;;0.06;75.84
57048;BME280;42934;54.294;18.598;2022-11-20T01:55:06;100451.16;;;-0.04;74.56
57048;BME280;42934;54.294;18.598;2022-11-20T01:57:38;100448.56;;;-0.09;74.81
57048;BME280;42934;54.294;18.598;2022-11-20T02:00:09;100451.13;;;-0.09;75.61
57048;BME280;42934;54.294;18.598;2022-11-20T02:02:43;100450.28;;;-0.08;75.29
57048;BME280;42934;54.294;18.598;2022-11-20T02:05:20;100450.28;;;-0.05;75.74
57048;BME280;42934;54.294;18.598;2022-11-20T02:07:51;100450.34;;;0.00;75.12
57048;BME280;42934;54.294;18.598;2022-11-20T02:10:21;100452.09;;;0.07;74.96
57048;BME280;42934;54.294;18.598;2022-11-20T02:12:51;100450.41;;;0.09;74.76
57048;BME280;42934;54.294;18.598;2022-11-20T02:15:38;100445.22;;;0.06;75.00
57048;BME280;42934;54.294;18.598;2022-11-20T02:18:10;100447.81;;;0.09;75.34
57048;BME280;42934;54.294;18.598;2022-11-20T02:20:41;100447.81;;;0.11;75.60
57048;BME280;42934;54.294;18.598;2022-11-20T02:23:15;100443.50;;;0.08;74.82
57048;BME280;42934;54.294;18.598;2022-11-20T02:25:50;100446.91;;;0.06;75.44
57048;BME280;42934;54.294;18.598;2022-11-20T02:28:20;100446.06;;;0.04;75.31
57048;BME280;42934;54.294;18.598;2022-11-20T02:30:50;100445.22;;;0.08;75.13
57048;BME280;42934;54.294;18.598;2022-11-20T02:33:19;100446.97;;;0.13;75.54
57048;BME280;42934;54.294;18.598;2022-11-20T02:35:48;100447.00;;;0.18;75.26
57048;BME280;42934;54.294;18.598;2022-11-20T02:38:18;100448.69;;;0.13;74.77
57048;BME280;42934;54.294;18.598;2022-11-20T02:40:49;100444.41;;;0.13;75.60
57048;BME280;42934;54.294;18.598;2022-11-20T02:43:23;100448.72;;;0.16;75.00
57048;BME280;42934;54.294;18.598;2022-11-20T02:45:52;100443.53;;;0.17;74.83
57048;BME280;42934;54.294;18.598;2022-11-20T02:48:21;100452.16;;;0.19;74.70
57048;BME280;42934;54.294;18.598;2022-11-20T02:50:51;100445.28;;;0.18;74.75
57048;BME280;42934;54.294;18.598;2022-11-20T02:53:21;100447.00;;;0.18;74.77
57048;BME280;42934;54.294;18.598;2022-11-20T02:55:51;100446.16;;;0.19;75.58
57048;BME280;42934;54.294;18.598;2022-11-20T02:58:21;100450.50;;;0.25;74.91
57048;BME280;42934;54.294;18.598;2022-11-20T03:00:51;100441.06;;;0.33;74.90
57048;BME280;42934;54.294;18.598;2022-11-20T03:03:21;100433.31;;;0.31;74.21
57048;BME280;42934;54.294;18.598;2022-11-20T03:05:50;100437.63;;;0.31;75.25
57048;BME280;42934;54.294;18.598;2022-11-20T03:08:19;100429.00;;;0.32;74.70
57048;BME280;42934;54.294;18.598;2022-11-20T03:10:48;100434.19;;;0.35;74.75
57048;BME280;42934;54.294;18.598;2022-11-20T03:13:19;100432.47;;;0.37;75.39
57048;BME280;42934;54.294;18.598;2022-11-20T03:15:48;100435.09;;;0.41;75.18
57048;BME280;42934;54.294;18.598;2022-11-20T03:18:18;100421.28;;;0.41;74.76
57048;BME280;42934;54.294;18.598;2022-11-20T03:20:47;100429.94;;;0.41;74.98
57048;BME280;42934;54.294;18.598;2022-11-20T03:23:16;100423.91;;;0.42;75.05
57048;BME280;42934;54.294;18.598;2022-11-20T03:25:45;100415.28;;;0.43;74.63
57048;BME280;42934;54.294;18.598;2022-11-20T03:28:15;100422.19;;;0.43;74.52
57048;BME280;42934;54.294;18.598;2022-11-20T03:30:45;100418.75;;;0.45;75.43
57048;BME280;42934;54.294;18.598;2022-11-20T03:33:15;100419.59;;;0.46;74.41
57048;BME280;42934;54.294;18.598;2022-11-20T03:35:44;100422.19;;;0.43;75.34
57048;BME280;42934;54.294;18.598;2022-11-20T03:38:13;100419.59;;;0.38;74.94
57048;BME280;42934;54.294;18.598;2022-11-20T03:40:42;100409.25;;;0.40;75.38
57048;BME280;42934;54.294;18.598;2022-11-20T03:43:12;100420.41;;;0.34;75.13
57048;BME280;42934;54.294;18.598;2022-11-20T03:45:41;100408.34;;;0.32;74.75
57048;BME280;42934;54.294;18.598;2022-11-20T03:48:11;100404.91;;;0.31;75.27
57048;BME280;42934;54.294;18.598;2022-11-20T03:50:41;100403.19;;;0.32;74.92
57048;BME280;42934;54.294;18.598;2022-11-20T03:53:10;100406.63;;;0.28;74.67
57048;BME280;42934;54.294;18.598;2022-11-20T03:55:43;100404.84;;;0.22;74.49
57048;BME280;42934;54.294;18.598;2022-11-20T03:58:12;100412.59;;;0.22;75.17
57048;BME280;42934;54.294;18.598;2022-11-20T04:00:41;100406.59;;;0.21;74.49
57048;BME280;42934;54.294;18.598;2022-11-20T04:03:12;100411.72;;;0.18;74.56
57048;BME280;42934;54.294;18.598;2022-11-20T04:05:41;100409.09;;;0.14;75.19
57048;BME280;42934;54.294;18.598;2022-11-20T04:08:11;100406.50;;;0.09;74.24
57048;BME280;42934;54.294;18.598;2022-11-20T04:10:41;100409.06;;;0.05;74.27
57048;BME280;42934;54.294;18.598;2022-11-20T04:13:10;100396.16;;;0.03;74.78
57048;BME280;42934;54.294;18.598;2022-11-20T04:15:39;100401.28;;;0.02;74.89
57048;BME280;42934;54.294;18.598;2022-11-20T04:18:08;100403.00;;;0.01;74.07
57048;BME280;42934;54.294;18.598;2022-11-20T04:20:39;100397.88;;;0.04;74.90
57048;BME280;42934;54.294;18.598;2022-11-20T04:23:09;100403.00;;;0.01;73.98
57048;BME280;42934;54.294;18.598;2022-11-20T04:25:38;100400.41;;;-0.05;73.86
57048;BME280;42934;54.294;18.598;2022-11-20T04:28:08;100403.78;;;-0.12;74.19
57048;BME280;42934;54.294;18.598;2022-11-20T04:30:37;100401.13;;;-0.23;74.15
57048;BME280;42934;54.294;18.598;2022-11-20T04:33:06;100404.50;;;-0.32;74.02
57048;BME280;42934;54.294;18.598;2022-11-20T04:35:37;100401.00;;;-0.40;73.98
57048;BME280;42934;54.294;18.598;2022-11-20T04:38:07;100406.09;;;-0.49;73.85
57048;BME280;42934;54.294;18.598;2022-11-20T04:40:36;100405.19;;;-0.54;74.19
57048;BME280;42934;54.294;18.598;2022-11-20T04:43:05;100405.16;;;-0.59;74.45
57048;BME280;42934;54.294;18.598;2022-11-20T04:45:34;100399.16;;;-0.58;74.30
57048;BME280;42934;54.294;18.598;2022-11-20T04:48:04;100400.84;;;-0.57;74.19
57048;BME280;42934;54.294;18.598;2022-11-20T04:50:33;100396.56;;;-0.58;73.80
57048;BME280;42934;54.294;18.598;2022-11-20T04:53:04;100395.72;;;-0.58;73.89
57048;BME280;42934;54.294;18.598;2022-11-20T04:55:33;100394.88;;;-0.56;73.67
57048;BME280;42934;54.294;18.598;2022-11-20T04:58:03;100382.81;;;-0.57;73.59
57048;BME280;42934;54.294;18.598;2022-11-20T05:00:32;100379.38;;;-0.59;73.53
57048;BME280;42934;54.294;18.598;2022-11-20T05:03:01;100387.06;;;-0.62;73.21
57048;BME280;42934;54.294;18.598;2022-11-20T05:05:31;100387.91;;;-0.67;73.35
57048;BME280;42934;54.294;18.598;2022-11-20T05:08:02;100383.56;;;-0.70;73.65
57048;BME280;42934;54.294;18.598;2022-11-20T05:10:31;100378.38;;;-0.73;73.25
57048;BME280;42934;54.294;18.598;2022-11-20T05:13:01;100389.53;;;-0.74;73.36
57048;BME280;42934;54.294;18.598;2022-11-20T05:15:30;100386.09;;;-0.76;73.47
57048;BME280;42934;54.294;18.598;2022-11-20T05:18:00;100376.59;;;-0.80;73.44
57048;BME280;42934;54.294;18.598;2022-11-20T05:20:29;100377.44;;;-0.84;73.72
57048;BME280;42934;54.294;18.598;2022-11-20T05:22:58;100379.13;;;-0.88;73.55
57048;BME280;42934;54.294;18.598;2022-11-20T05:25:29;100373.94;;;-0.91;73.75
57048;BME280;42934;54.294;18.598;2022-11-20T05:27:58;100376.44;;;-0.96;73.69
57048;BME280;42934;54.294;18.598;2022-11-20T05:30:27;100365.28;;;-0.95;73.85
57048;BME280;42934;54.294;18.598;2022-11-20T05:32:57;100361.78;;;-1.03;73.18
57048;BME280;42934;54.294;18.598;2022-11-20T05:35:26;100364.34;;;-1.06;73.52
57048;BME280;42934;54.294;18.598;2022-11-20T05:37:55;100366.00;;;-1.11;73.38
57048;BME280;42934;54.294;18.598;2022-11-20T05:40:24;100354.78;;;-1.16;73.62
57048;BME280;42934;54.294;18.598;2022-11-20T05:42:55;100354.78;;;-1.16;74.07
57048;BME280;42934;54.294;18.598;2022-11-20T05:45:24;100354.81;;;-1.13;73.98
57048;BME280;42934;54.294;18.598;2022-11-20T05:47:57;100351.38;;;-1.13;73.36
57048;BME280;42934;54.294;18.598;2022-11-20T05:50:26;100352.22;;;-1.13;73.55
57048;BME280;42934;54.294;18.598;2022-11-20T05:52:58;100356.56;;;-1.10;73.21
57048;BME280;42934;54.294;18.598;2022-11-20T05:55:28;100353.97;;;-1.09;72.86
57048;BME280;42934;54.294;18.598;2022-11-20T05:57:59;100352.19;;;-1.16;72.99
57048;BME280;42934;54.294;18.598;2022-11-20T06:00:28;100350.44;;;-1.23;72.79
57048;BME280;42934;54.294;18.598;2022-11-20T06:02:57;100349.50;;;-1.28;73.04
57048;BME280;42934;54.294;18.598;2022-11-20T06:05:26;100339.97;;;-1.35;72.88
57048;BME280;42934;54.294;18.598;2022-11-20T06:07:56;100332.22;;;-1.40;72.91
57048;BME280;42934;54.294;18.598;2022-11-20T06:10:25;100326.94;;;-1.52;73.14
57048;BME280;42934;54.294;18.598;2022-11-20T06:12:59;100342.47;;;-1.42;73.36
57048;BME280;42934;54.294;18.598;2022-11-20T06:15:28;100340.75;;;-1.43;73.39
57048;BME280;42934;54.294;18.598;2022-11-20T06:17:57;100350.22;;;-1.40;73.73
57048;BME280;42934;54.294;18.598;2022-11-20T06:20:26;100340.84;;;-1.35;73.58
57048;BME280;42934;54.294;18.598;2022-11-20T06:22:56;100340.00;;;-1.32;73.45
57048;BME280;42934;54.294;18.598;2022-11-20T06:25:25;100340.00;;;-1.34;73.35
57048;BME280;42934;54.294;18.598;2022-11-20T06:27:54;100334.03;;;-1.30;73.55
57048;BME280;42934;54.294;18.598;2022-11-20T06:30:25;100334.94;;;-1.25;73.85
57048;BME280;42934;54.294;18.598;2022-11-20T06:32:54;100335.81;;;-1.21;73.68
57048;BME280;42934;54.294;18.598;2022-11-20T06:35:23;100335.00;;;-1.19;73.29
57048;BME280;42934;54.294;18.598;2022-11-20T06:37:53;100337.53;;;-1.23;73.18
57048;BME280;42934;54.294;18.598;2022-11-20T06:40:22;100341.81;;;-1.24;73.45
57048;BME280;42934;54.294;18.598;2022-11-20T06:42:53;100335.78;;;-1.24;73.42
57048;BME280;42934;54.294;18.598;2022-11-20T06:45:21;100341.78;;;-1.27;73.64
57048;BME280;42934;54.294;18.598;2022-11-20T06:47:52;100345.31;;;-1.20;73.99
57048;BME280;42934;54.294;18.598;2022-11-20T06:50:21;100346.16;;;-1.20;73.71
57048;BME280;42934;54.294;18.598;2022-11-20T06:52:51;100348.75;;;-1.20;73.66
57048;BME280;42934;54.294;18.598;2022-11-20T06:55:20;100343.59;;;-1.20;73.71
57048;BME280;42934;54.294;18.598;2022-11-20T06:57:51;100347.91;;;-1.16;73.89
57048;BME280;42934;54.294;18.598;2022-11-20T07:00:22;100342.81;;;-1.09;74.04
57048;BME280;42934;54.294;18.598;2022-11-20T07:02:53;100346.34;;;-1.01;74.04
57048;BME280;42934;54.294;18.598;2022-11-20T07:05:22;100346.41;;;-0.94;73.89
57048;BME280;42934;54.294;18.598;2022-11-20T07:07:52;100345.59;;;-0.91;74.01
57048;BME280;42934;54.294;18.598;2022-11-20T07:10:24;100347.31;;;-0.90;73.93
57048;BME280;42934;54.294;18.598;2022-11-20T07:12:54;100348.22;;;-0.83;74.18
57048;BME280;42934;54.294;18.598;2022-11-20T07:15:24;100338.78;;;-0.80;74.35
57048;BME280;42934;54.294;18.598;2022-11-20T07:17:58;100341.44;;;-0.72;73.89
57048;BME280;42934;54.294;18.598;2022-11-20T07:20:27;100338.94;;;-0.64;74.01
57048;BME280;42934;54.294;18.598;2022-11-20T07:22:57;100346.66;;;-0.63;74.04
57048;BME280;42934;54.294;18.598;2022-11-20T07:25:28;100345.81;;;-0.62;74.10
57048;BME280;42934;54.294;18.598;2022-11-20T07:27:59;100350.16;;;-0.56;74.44
57048;BME280;42934;54.294;18.598;2022-11-20T07:30:29;100343.28;;;-0.56;74.42
57048;BME280;42934;54.294;18.598;2022-11-20T07:33:00;100339.00;;;-0.55;73.77
57048;BME280;42934;54.294;18.598;2022-11-20T07:35:29;100343.31;;;-0.53;74.02
57048;BME280;42934;54.294;18.598;2022-11-20T07:37:59;100340.75;;;-0.50;74.05
57048;BME280;42934;54.294;18.598;2022-11-20T07:40:28;100335.59;;;-0.50;74.73
57048;BME280;42934;54.294;18.598;2022-11-20T07:42:57;100336.47;;;-0.49;74.79
57048;BME280;42934;54.294;18.598;2022-11-20T07:45:26;100327.88;;;-0.45;74.40
57048;BME280;42934;54.294;18.598;2022-11-20T07:47:56;100332.22;;;-0.44;75.00
57048;BME280;42934;54.294;18.598;2022-11-20T07:50:26;100341.66;;;-0.38;75.00
57048;BME280;42934;54.294;18.598;2022-11-20T07:53:03;100333.97;;;-0.37;75.13
57048;BME280;42934;54.294;18.598;2022-11-20T07:55:32;100330.53;;;-0.36;75.17
57048;BME280;42934;54.294;18.598;2022-11-20T07:58:02;100328.88;;;-0.29;74.70
57048;BME280;42934;54.294;18.598;2022-11-20T08:00:31;100329.72;;;-0.27;74.84
57048;BME280;42934;54.294;18.598;2022-11-20T08:03:03;100328.00;;;-0.28;75.21
57048;BME280;42934;54.294;18.598;2022-11-20T08:05:34;100324.56;;;-0.24;75.17
57048;BME280;42934;54.294;18.598;2022-11-20T08:08:03;100328.06;;;-0.17;75.30
57048;BME280;42934;54.294;18.598;2022-11-20T08:10:34;100320.34;;;-0.13;75.03
57048;BME280;42934;54.294;18.598;2022-11-20T08:13:03;100321.22;;;-0.09;75.43
57048;BME280;42934;54.294;18.598;2022-11-20T08:15:51;100321.22;;;-0.06;75.26
57048;BME280;42934;54.294;18.598;2022-11-20T08:18:20;100321.22;;;-0.06;75.55
57048;BME280;42934;54.294;18.598;2022-11-20T08:21:02;100324.69;;;-0.06;75.58
57048;BME280;42934;54.294;18.598;2022-11-20T08:23:32;100322.13;;;-0.06;76.01
57048;BME280;42934;54.294;18.598;2022-11-20T08:26:02;100324.69;;;-0.06;76.17
57048;BME280;42934;54.294;18.598;2022-11-20T08:28:31;100319.56;;;0.01;76.13
57048;BME280;42934;54.294;18.598;2022-11-20T08:31:01;100326.47;;;0.08;75.69
57048;BME280;42934;54.294;18.598;2022-11-20T08:33:31;100326.47;;;0.11;75.64
57048;BME280;42934;54.294;18.598;2022-11-20T08:36:03;100325.63;;;0.12;76.12
57048;BME280;42934;54.294;18.598;2022-11-20T08:38:37;100324.78;;;0.17;75.58
57048;BME280;42934;54.294;18.598;2022-11-20T08:41:43;100317.94;;;0.21;75.63
57048;BME280;42934;54.294;18.598;2022-11-20T08:44:13;100318.78;;;0.23;75.61
57048;BME280;42934;54.294;18.598;2022-11-20T08:46:42;100317.09;;;0.25;75.52
57048;BME280;42934;54.294;18.598;2022-11-20T08:49:14;100317.09;;;0.27;76.12
57048;BME280;42934;54.294;18.598;2022-11-20T08:51:45;100308.47;;;0.29;75.73
57048;BME280;42934;54.294;18.598;2022-11-20T08:54:16;100295.56;;;0.21;75.64
57048;BME280;42934;54.294;18.598;2022-11-20T08:56:47;100307.63;;;0.35;75.17
57048;BME280;42934;54.294;18.598;2022-11-20T08:59:17;100308.50;;;0.34;75.30
57048;BME280;42934;54.294;18.598;2022-11-20T09:02:06;100305.03;;;0.32;75.94
57048;BME280;42934;54.294;18.598;2022-11-20T09:04:35;100298.16;;;0.32;75.53
57048;BME280;42934;54.294;18.598;2022-11-20T09:07:06;100293.88;;;0.33;76.02
57048;BME280;42934;54.294;18.598;2022-11-20T09:09:35;100299.06;;;0.36;75.18
57048;BME280;42934;54.294;18.598;2022-11-20T09:12:05;100293.03;;;0.38;75.06
57048;BME280;42934;54.294;18.598;2022-11-20T09:14:34;100297.31;;;0.41;75.40
57048;BME280;42934;54.294;18.598;2022-11-20T09:17:03;100299.91;;;0.41;75.79
57048;BME280;42934;54.294;18.598;2022-11-20T09:19:33;100294.72;;;0.38;75.75
57048;BME280;42934;54.294;18.598;2022-11-20T09:22:04;100288.72;;;0.39;75.35
57048;BME280;42934;54.294;18.598;2022-11-20T09:24:34;100288.72;;;0.39;75.13
57048;BME280;42934;54.294;18.598;2022-11-20T09:27:04;100291.28;;;0.34;75.71
57048;BME280;42934;54.294;18.598;2022-11-20T09:29:34;100278.38;;;0.33;75.19
57048;BME280;42934;54.294;18.598;2022-11-20T09:32:03;100282.69;;;0.34;75.91
57048;BME280;42934;54.294;18.598;2022-11-20T09:34:33;100274.09;;;0.33;75.97
57048;BME280;42934;54.294;18.598;2022-11-20T09:37:02;100274.06;;;0.38;76.04
57048;BME280;42934;54.294;18.598;2022-11-20T09:39:36;100267.22;;;0.43;76.26
57048;BME280;42934;54.294;18.598;2022-11-20T09:42:25;100268.94;;;0.44;75.65
57048;BME280;42934;54.294;18.598;2022-11-20T09:45:11;100270.66;;;0.48;75.73
57048;BME280;42934;54.294;18.598;2022-11-20T09:47:56;100271.53;;;0.52;76.23
57048;BME280;42934;54.294;18.598;2022-11-20T09:50:32;100267.25;;;0.57;76.37
57048;BME280;42934;54.294;18.598;2022-11-20T09:53:12;100262.09;;;0.60;76.59
57048;BME280;42934;54.294;18.598;2022-11-20T09:55:45;100259.53;;;0.78;75.68
57048;BME280;42934;54.294;18.598;2022-11-20T09:58:21;100250.03;;;0.85;75.36
57048;BME280;42934;54.294;18.598;2022-11-20T10:00:54;100251.78;;;0.86;75.98
57048;BME280;42934;54.294;18.598;2022-11-20T10:03:36;100250.06;;;0.96;75.91
57048;BME280;42934;54.294;18.598;2022-11-20T10:06:12;100259.53;;;1.04;75.42
57048;BME280;42934;54.294;18.598;2022-11-20T10:08:44;100250.06;;;1.16;75.36
57048;BME280;42934;54.294;18.598;2022-11-20T10:11:24;100248.31;;;1.25;75.47
57048;BME280;42934;54.294;18.598;2022-11-20T10:14:04;100247.44;;;1.34;75.14
57048;BME280;42934;54.294;18.598;2022-11-20T10:16:41;100249.13;;;1.38;74.40
57048;BME280;42934;54.294;18.598;2022-11-20T10:19:26;100249.16;;;1.43;74.37
57048;BME280;42934;54.294;18.598;2022-11-20T10:22:08;100243.97;;;1.47;74.19
57048;BME280;42934;54.294;18.598;2022-11-20T10:24:55;100243.09;;;1.48;73.65
57048;BME280;42934;54.294;18.598;2022-11-20T10:30:27;100239.63;;;1.49;73.81
57048;BME280;42934;54.294;18.598;2022-11-20T10:33:03;100244.81;;;1.51;73.79
57048;BME280;42934;54.294;18.598;2022-11-20T10:35:36;100233.59;;;1.53;73.77
57048;BME280;42934;54.294;18.598;2022-11-20T10:38:14;100237.03;;;1.55;74.31
57048;BME280;42934;54.294;18.598;2022-11-20T10:40:48;100234.44;;;1.57;74.22
57048;BME280;42934;54.294;18.598;2022-11-20T10:43:24;100235.31;;;1.51;73.13
57048;BME280;42934;54.294;18.598;2022-11-20T10:46:00;100235.31;;;1.50;74.34
57048;BME280;42934;54.294;18.598;2022-11-20T10:48:34;100231.03;;;1.53;73.71
57048;BME280;42934;54.294;18.598;2022-11-20T10:51:18;100227.53;;;1.61;74.33
57048;BME280;42934;54.294;18.598;2022-11-20T10:54:02;100230.97;;;1.64;74.20
57048;BME280;42934;54.294;18.598;2022-11-20T10:56:38;100227.50;;;1.67;73.80
57048;BME280;42934;54.294;18.598;2022-11-20T10:59:41;100222.34;;;1.71;73.58
57048;BME280;42934;54.294;18.598;2022-11-20T11:02:19;100215.41;;;1.73;73.49
57048;BME280;42934;54.294;18.598;2022-11-20T11:04:50;100224.88;;;1.76;74.02
57048;BME280;42934;54.294;18.598;2022-11-20T11:07:23;100227.50;;;1.77;73.77
57048;BME280;42934;54.294;18.598;2022-11-20T11:09:54;100216.28;;;1.80;73.49
57048;BME280;42934;54.294;18.598;2022-11-20T11:12:26;100217.09;;;1.82;73.57
57048;BME280;42934;54.294;18.598;2022-11-20T11:14:58;100209.34;;;1.84;73.06
57048;BME280;42934;54.294;18.598;2022-11-20T11:17:29;100206.75;;;1.87;73.57
57048;BME280;42934;54.294;18.598;2022-11-20T11:20:05;100211.06;;;1.89;73.82
57048;BME280;42934;54.294;18.598;2022-11-20T11:22:43;100208.44;;;1.91;73.95
57048;BME280;42934;54.294;18.598;2022-11-20T11:25:29;100210.16;;;1.95;73.24
57048;BME280;42934;54.294;18.598;2022-11-20T11:28:03;100218.78;;;1.95;73.74
57048;BME280;42934;54.294;18.598;2022-11-20T11:30:44;100198.06;;;1.97;73.79
57048;BME280;42934;54.294;18.598;2022-11-20T11:33:21;100203.22;;;1.97;73.51
57048;BME280;42934;54.294;18.598;2022-11-20T11:35:52;100193.75;;;1.97;73.71
57048;BME280;42934;54.294;18.598;2022-11-20T11:38:29;100193.75;;;1.97;73.15
57048;BME280;42934;54.294;18.598;2022-11-20T11:41:00;100195.50;;;1.92;73.71
57048;BME280;42934;54.294;18.598;2022-11-20T11:43:32;100187.72;;;1.94;73.90
57048;BME280;42934;54.294;18.598;2022-11-20T11:46:31;100193.75;;;1.96;73.32
57048;BME280;42934;54.294;18.598;2022-11-20T11:49:10;100194.59;;;1.96;73.94
57048;BME280;42934;54.294;18.598;2022-11-20T11:51:56;100190.28;;;1.97;73.40
57048;BME280;42934;54.294;18.598;2022-11-20T11:54:33;100180.78;;;1.99;73.16
57048;BME280;42934;54.294;18.598;2022-11-20T11:57:10;100180.78;;;1.99;72.99
57048;BME280;42934;54.294;18.598;2022-11-20T11:59:49;100175.66;;;1.93;73.75
57048;BME280;42934;54.294;18.598;2022-11-20T12:02:32;100171.31;;;1.98;73.42
57048;BME280;42934;54.294;18.598;2022-11-20T12:05:13;100167.00;;;1.98;73.74
57048;BME280;42934;54.294;18.598;2022-11-20T12:07:47;100168.72;;;1.98;73.34
57048;BME280;42934;54.294;18.598;2022-11-20T12:10:22;100163.56;;;1.92;72.86
57048;BME280;42934;54.294;18.598;2022-11-20T12:12:56;100155.84;;;1.84;73.62
57048;BME280;42934;54.294;18.598;2022-11-20T12:15:31;100154.13;;;1.86;73.83
57048;BME280;42934;54.294;18.598;2022-11-20T12:18:04;100155.84;;;1.86;74.33
57048;BME280;42934;54.294;18.598;2022-11-20T12:20:48;100149.81;;;1.80;74.16
57048;BME280;42934;54.294;18.598;2022-11-20T12:23:28;100147.22;;;1.82;74.23
57048;BME280;42934;54.294;18.598;2022-11-20T12:26:05;100153.25;;;1.86;74.02
57048;BME280;42934;54.294;18.598;2022-11-20T12:28:46;100151.53;;;1.81;74.03
57048;BME280;42934;54.294;18.598;2022-11-20T12:31:37;100152.47;;;1.71;73.30
57048;BME280;42934;54.294;18.598;2022-11-20T12:37:15;100138.66;;;1.74;74.21
57048;BME280;42934;54.294;18.598;2022-11-20T12:39:49;100142.09;;;1.73;73.91
57048;BME280;42934;54.294;18.598;2022-11-20T12:42:39;100132.56;;;1.76;73.73
57048;BME280;42934;54.294;18.598;2022-11-20T12:45:49;100129.06;;;1.85;74.57
57048;BME280;42934;54.294;18.598;2022-11-20T12:48:42;100123.91;;;1.84;74.17
57048;BME280;42934;54.294;18.598;2022-11-20T12:51:26;100129.06;;;1.90;73.68
57048;BME280;42934;54.294;18.598;2022-11-20T12:54:17;100117.88;;;1.81;73.74
57048;BME280;42934;54.294;18.598;2022-11-20T12:57:00;100112.78;;;1.69;73.20
57048;BME280;42934;54.294;18.598;2022-11-20T12:59:50;100116.31;;;1.54;73.45
57048;BME280;42934;54.294;18.598;2022-11-20T13:02:27;100114.53;;;1.63;74.43
57048;BME280;42934;54.294;18.598;2022-11-20T13:07:57;100097.22;;;1.72;73.75
57048;BME280;42934;54.294;18.598;2022-11-20T13:10:33;100100.69;;;1.70;74.28
57048;BME280;42934;54.294;18.598;2022-11-20T13:13:11;100098.13;;;1.68;73.75
57048;BME280;42934;54.294;18.598;2022-11-20T13:15:48;100099.84;;;1.69;74.35
57048;BME280;42934;54.294;18.598;2022-11-20T13:18:20;100102.47;;;1.60;73.54
57048;BME280;42934;54.294;18.598;2022-11-20T13:20:49;100102.53;;;1.51;74.12
57048;BME280;42934;54.294;18.598;2022-11-20T13:23:27;100101.69;;;1.46;74.35
57048;BME280;42934;54.294;18.598;2022-11-20T13:26:14;100092.22;;;1.45;74.94